sensor_id;sensor_type;location;lat;lon;timestamp;temperature;humidity
13426;DHT22;6785;57.918;12.530;2023-04-03T00:00:28;-1.80;99.90
13426;DHT22;6785;57.918;12.530;2023-04-03T00:02:55;-1.80;99.90
13426;DHT22;6785;57.918;12.530;2023-04-03T00:05:22;-1.80;99.90
13426;DHT22;6785;57.918;12.530;2023-04-03T00:07:50;-1.90;99.90
13426;DHT22;6785;57.918;12.530;2023-04-03T00:10:17;-1.90;99.90
13426;DHT22;6785;57.918;12.530;2023-04-03T00:12:43;-1.90;99.90
13426;DHT22;6785;57.918;12.530;2023-04-03T00:15:10;-2.00;99.90
13426;DHT22;6785;57.918;12.530;2023-04-03T00:17:37;-2.00;99.90
13426;DHT22;6785;57.918;12.530;2023-04-03T00:20:05;-2.00;99.90
13426;DHT22;6785;57.918;12.530;2023-04-03T00:22:32;-2.10;99.90
13426;DHT22;6785;57.918;12.530;2023-04-03T00:25:00;-2.10;99.90
13426;DHT22;6785;57.918;12.530;2023-04-03T00:27:26;-2.10;99.90
13426;DHT22;6785;57.918;12.530;2023-04-03T00:29:53;-2.10;99.90
13426;DHT22;6785;57.918;12.530;2023-04-03T00:32:20;-2.10;99.90
13426;DHT22;6785;57.918;12.530;2023-04-03T00:34:46;-2.10;99.90
13426;DHT22;6785;57.918;12.530;2023-04-03T00:37:13;-2.10;99.90
13426;DHT22;6785;57.918;12.530;2023-04-03T00:39:40;-2.10;99.90
13426;DHT22;6785;57.918;12.530;2023-04-03T00:42:08;-2.10;99.90
13426;DHT22;6785;57.918;12.530;2023-04-03T00:47:41;-2.10;99.90
13426;DHT22;6785;57.918;12.530;2023-04-03T00:50:08;-2.10;99.90
13426;DHT22;6785;57.918;12.530;2023-04-03T00:52:37;-2.10;99.90
13426;DHT22;6785;57.918;12.530;2023-04-03T00:55:08;-2.10;99.90
13426;DHT22;6785;57.918;12.530;2023-04-03T00:57:37;-2.10;99.90
13426;DHT22;6785;57.918;12.530;2023-04-03T01:00:08;-2.10;99.90
13426;DHT22;6785;57.918;12.530;2023-04-03T01:02:35;-2.10;99.90
13426;DHT22;6785;57.918;12.530;2023-04-03T01:05:03;-2.10;99.90
13426;DHT22;6785;57.918;12.530;2023-04-03T01:07:31;-2.10;99.90
13426;DHT22;6785;57.918;12.530;2023-04-03T01:10:01;-2.10;99.90
13426;DHT22;6785;57.918;12.530;2023-04-03T01:12:30;-2.10;99.90
13426;DHT22;6785;57.918;12.530;2023-04-03T01:15:03;-2.10;99.90
13426;DHT22;6785;57.918;12.530;2023-04-03T01:17:33;-2.20;99.90
13426;DHT22;6785;57.918;12.530;2023-04-03T01:23:23;-2.30;99.90
13426;DHT22;6785;57.918;12.530;2023-04-03T01:25:53;-2.30;99.90
13426;DHT22;6785;57.918;12.530;2023-04-03T01:28:23;-2.40;99.90
13426;DHT22;6785;57.918;12.530;2023-04-03T01:30:58;-2.40;99.90
13426;DHT22;6785;57.918;12.530;2023-04-03T01:33:28;-2.40;99.90
13426;DHT22;6785;57.918;12.530;2023-04-03T01:35:55;-2.40;99.90
13426;DHT22;6785;57.918;12.530;2023-04-03T01:38:22;-2.40;99.90
13426;DHT22;6785;57.918;12.530;2023-04-03T01:40:49;-2.50;99.90
13426;DHT22;6785;57.918;12.530;2023-04-03T01:43:16;-2.50;99.90
13426;DHT22;6785;57.918;12.530;2023-04-03T01:45:42;-2.50;99.90
13426;DHT22;6785;57.918;12.530;2023-04-03T01:48:09;-2.50;99.90
13426;DHT22;6785;57.918;12.530;2023-04-03T01:50:37;-2.50;99.90
13426;DHT22;6785;57.918;12.530;2023-04-03T01:53:04;-2.50;99.90
13426;DHT22;6785;57.918;12.530;2023-04-03T01:55:31;-2.50;99.90
13426;DHT22;6785;57.918;12.530;2023-04-03T01:57:57;-2.60;99.90
13426;DHT22;6785;57.918;12.530;2023-04-03T02:00:24;-2.60;99.90
13426;DHT22;6785;57.918;12.530;2023-04-03T02:02:52;-2.60;99.90
13426;DHT22;6785;57.918;12.530;2023-04-03T02:05:18;-2.70;99.90
13426;DHT22;6785;57.918;12.530;2023-04-03T02:07:46;-2.80;99.90
13426;DHT22;6785;57.918;12.530;2023-04-03T02:10:13;-2.80;99.90
13426;DHT22;6785;57.918;12.530;2023-04-03T02:12:40;-2.80;99.90
13426;DHT22;6785;57.918;12.530;2023-04-03T02:15:08;-2.80;99.90
13426;DHT22;6785;57.918;12.530;2023-04-03T02:17:35;-2.90;99.90
13426;DHT22;6785;57.918;12.530;2023-04-03T02:20:02;-2.90;99.90
13426;DHT22;6785;57.918;12.530;2023-04-03T02:22:30;-3.00;99.90
13426;DHT22;6785;57.918;12.530;2023-04-03T02:24:58;-3.00;99.90
13426;DHT22;6785;57.918;12.530;2023-04-03T02:27:25;-3.00;99.90
13426;DHT22;6785;57.918;12.530;2023-04-03T02:29:51;-2.90;99.90
13426;DHT22;6785;57.918;12.530;2023-04-03T02:32:18;-3.00;99.90
13426;DHT22;6785;57.918;12.530;2023-04-03T02:34:45;-3.00;99.90
13426;DHT22;6785;57.918;12.530;2023-04-03T02:37:11;-3.00;99.90
13426;DHT22;6785;57.918;12.530;2023-04-03T02:39:38;-2.90;99.90
13426;DHT22;6785;57.918;12.530;2023-04-03T02:42:06;-2.90;99.90
13426;DHT22;6785;57.918;12.530;2023-04-03T02:44:33;-2.90;99.90
13426;DHT22;6785;57.918;12.530;2023-04-03T02:47:01;-2.90;99.90
13426;DHT22;6785;57.918;12.530;2023-04-03T02:49:28;-2.90;99.90
13426;DHT22;6785;57.918;12.530;2023-04-03T02:51:55;-3.00;99.90
13426;DHT22;6785;57.918;12.530;2023-04-03T02:54:21;-3.00;99.90
13426;DHT22;6785;57.918;12.530;2023-04-03T02:56:50;-3.00;99.90
13426;DHT22;6785;57.918;12.530;2023-04-03T02:59:19;-3.10;99.90
13426;DHT22;6785;57.918;12.530;2023-04-03T03:01:45;-3.20;99.90
13426;DHT22;6785;57.918;12.530;2023-04-03T03:04:12;-3.20;99.90
13426;DHT22;6785;57.918;12.530;2023-04-03T03:06:39;-3.20;99.90
13426;DHT22;6785;57.918;12.530;2023-04-03T03:09:06;-3.20;99.90
13426;DHT22;6785;57.918;12.530;2023-04-03T03:11:33;-3.20;99.90
13426;DHT22;6785;57.918;12.530;2023-04-03T03:14:00;-3.20;99.90
13426;DHT22;6785;57.918;12.530;2023-04-03T03:16:28;-3.20;99.90
13426;DHT22;6785;57.918;12.530;2023-04-03T03:18:55;-3.20;99.90
13426;DHT22;6785;57.918;12.530;2023-04-03T03:21:21;-3.30;99.90
13426;DHT22;6785;57.918;12.530;2023-04-03T03:23:48;-3.30;99.90
13426;DHT22;6785;57.918;12.530;2023-04-03T03:26:15;-3.30;99.90
13426;DHT22;6785;57.918;12.530;2023-04-03T03:28:42;-3.30;99.90
13426;DHT22;6785;57.918;12.530;2023-04-03T03:31:09;-3.30;99.90
13426;DHT22;6785;57.918;12.530;2023-04-03T03:33:37;-3.30;99.90
13426;DHT22;6785;57.918;12.530;2023-04-03T03:36:05;-3.40;99.90
13426;DHT22;6785;57.918;12.530;2023-04-03T03:38:31;-3.40;99.90
13426;DHT22;6785;57.918;12.530;2023-04-03T03:40:58;-3.50;99.90
13426;DHT22;6785;57.918;12.530;2023-04-03T03:43:25;-3.50;99.90
13426;DHT22;6785;57.918;12.530;2023-04-03T03:45:53;-3.50;99.90
13426;DHT22;6785;57.918;12.530;2023-04-03T03:48:21;-3.50;99.90
13426;DHT22;6785;57.918;12.530;2023-04-03T03:50:50;-3.50;99.90
13426;DHT22;6785;57.918;12.530;2023-04-03T03:53:16;-3.50;99.90
13426;DHT22;6785;57.918;12.530;2023-04-03T03:55:44;-3.60;99.90
13426;DHT22;6785;57.918;12.530;2023-04-03T03:58:11;-3.60;99.90
13426;DHT22;6785;57.918;12.530;2023-04-03T04:00:38;-3.60;99.90
13426;DHT22;6785;57.918;12.530;2023-04-03T04:03:04;-3.60;99.90
13426;DHT22;6785;57.918;12.530;2023-04-03T04:05:31;-3.60;99.90
13426;DHT22;6785;57.918;12.530;2023-04-03T04:07:59;-3.60;99.90
13426;DHT22;6785;57.918;12.530;2023-04-03T04:10:26;-3.60;99.90
13426;DHT22;6785;57.918;12.530;2023-04-03T04:12:53;-3.70;99.90
13426;DHT22;6785;57.918;12.530;2023-04-03T04:15:20;-3.60;99.90
13426;DHT22;6785;57.918;12.530;2023-04-03T04:17:48;-3.70;99.90
13426;DHT22;6785;57.918;12.530;2023-04-03T04:20:15;-3.70;99.90
13426;DHT22;6785;57.918;12.530;2023-04-03T04:22:41;-3.70;99.90
13426;DHT22;6785;57.918;12.530;2023-04-03T04:25:10;-3.70;99.90
13426;DHT22;6785;57.918;12.530;2023-04-03T04:27:36;-3.70;99.90
13426;DHT22;6785;57.918;12.530;2023-04-03T04:30:04;-3.80;99.90
13426;DHT22;6785;57.918;12.530;2023-04-03T04:32:31;-3.80;99.90
13426;DHT22;6785;57.918;12.530;2023-04-03T04:34:58;-3.80;99.90
13426;DHT22;6785;57.918;12.530;2023-04-03T04:37:25;-3.80;99.90
13426;DHT22;6785;57.918;12.530;2023-04-03T04:39:51;-3.90;99.90
13426;DHT22;6785;57.918;12.530;2023-04-03T04:42:19;-3.90;99.90
13426;DHT22;6785;57.918;12.530;2023-04-03T04:44:46;-3.90;99.90
13426;DHT22;6785;57.918;12.530;2023-04-03T04:47:13;-3.90;99.90
13426;DHT22;6785;57.918;12.530;2023-04-03T04:49:40;-3.90;99.90
13426;DHT22;6785;57.918;12.530;2023-04-03T04:52:06;-3.80;99.90
13426;DHT22;6785;57.918;12.530;2023-04-03T04:54:33;-3.90;99.90
13426;DHT22;6785;57.918;12.530;2023-04-03T04:57:00;-3.80;99.90
13426;DHT22;6785;57.918;12.530;2023-04-03T04:59:28;-3.80;99.90
13426;DHT22;6785;57.918;12.530;2023-04-03T05:01:54;-3.80;99.90
13426;DHT22;6785;57.918;12.530;2023-04-03T05:04:21;-3.80;99.90
13426;DHT22;6785;57.918;12.530;2023-04-03T05:06:48;-3.80;99.90
13426;DHT22;6785;57.918;12.530;2023-04-03T05:09:15;-3.70;99.90
13426;DHT22;6785;57.918;12.530;2023-04-03T05:11:41;-3.70;99.90
13426;DHT22;6785;57.918;12.530;2023-04-03T05:14:08;-3.60;99.90
13426;DHT22;6785;57.918;12.530;2023-04-03T05:16:36;-3.60;99.90
13426;DHT22;6785;57.918;12.530;2023-04-03T05:19:03;-3.50;99.90
13426;DHT22;6785;57.918;12.530;2023-04-03T05:21:30;-3.50;99.90
13426;DHT22;6785;57.918;12.530;2023-04-03T05:23:58;-3.40;99.90
13426;DHT22;6785;57.918;12.530;2023-04-03T05:26:27;-3.40;99.90
13426;DHT22;6785;57.918;12.530;2023-04-03T05:28:55;-3.30;99.90
13426;DHT22;6785;57.918;12.530;2023-04-03T05:31:22;-3.30;99.90
13426;DHT22;6785;57.918;12.530;2023-04-03T05:33:50;-3.20;99.90
13426;DHT22;6785;57.918;12.530;2023-04-03T05:36:17;-3.10;99.90
13426;DHT22;6785;57.918;12.530;2023-04-03T05:38:44;-3.10;99.90
13426;DHT22;6785;57.918;12.530;2023-04-03T05:41:11;-3.00;99.90
13426;DHT22;6785;57.918;12.530;2023-04-03T05:43:37;-2.90;99.90
13426;DHT22;6785;57.918;12.530;2023-04-03T05:46:07;-2.90;99.90
13426;DHT22;6785;57.918;12.530;2023-04-03T05:48:35;-2.80;99.90
13426;DHT22;6785;57.918;12.530;2023-04-03T05:51:04;-2.80;99.90
13426;DHT22;6785;57.918;12.530;2023-04-03T05:53:34;-2.70;99.90
13426;DHT22;6785;57.918;12.530;2023-04-03T05:56:02;-2.60;99.90
13426;DHT22;6785;57.918;12.530;2023-04-03T05:58:28;-2.60;99.90
13426;DHT22;6785;57.918;12.530;2023-04-03T06:00:55;-2.60;99.90
13426;DHT22;6785;57.918;12.530;2023-04-03T06:03:22;-2.50;99.90
13426;DHT22;6785;57.918;12.530;2023-04-03T06:05:49;-2.40;99.90
13426;DHT22;6785;57.918;12.530;2023-04-03T06:08:17;-2.30;99.90
13426;DHT22;6785;57.918;12.530;2023-04-03T06:10:44;-2.20;99.90
13426;DHT22;6785;57.918;12.530;2023-04-03T06:13:11;-2.20;99.90
13426;DHT22;6785;57.918;12.530;2023-04-03T06:15:38;-2.10;99.90
13426;DHT22;6785;57.918;12.530;2023-04-03T06:18:05;-2.00;99.90
13426;DHT22;6785;57.918;12.530;2023-04-03T06:20:32;-1.90;99.90
13426;DHT22;6785;57.918;12.530;2023-04-03T06:22:58;-1.80;99.90
13426;DHT22;6785;57.918;12.530;2023-04-03T06:25:26;-1.60;99.90
13426;DHT22;6785;57.918;12.530;2023-04-03T06:27:53;-1.40;99.90
13426;DHT22;6785;57.918;12.530;2023-04-03T06:30:21;-1.30;99.90
13426;DHT22;6785;57.918;12.530;2023-04-03T06:32:48;-1.10;99.90
13426;DHT22;6785;57.918;12.530;2023-04-03T06:35:15;-0.90;99.90
13426;DHT22;6785;57.918;12.530;2023-04-03T06:37:41;-0.80;99.90
13426;DHT22;6785;57.918;12.530;2023-04-03T06:40:15;-0.60;99.90
13426;DHT22;6785;57.918;12.530;2023-04-03T06:42:45;-0.40;99.90
13426;DHT22;6785;57.918;12.530;2023-04-03T06:45:12;-0.30;99.90
13426;DHT22;6785;57.918;12.530;2023-04-03T06:47:39;-0.20;99.90
13426;DHT22;6785;57.918;12.530;2023-04-03T06:50:06;-0.10;99.90
13426;DHT22;6785;57.918;12.530;2023-04-03T06:52:34;0.10;99.90
13426;DHT22;6785;57.918;12.530;2023-04-03T06:55:01;0.20;99.90
13426;DHT22;6785;57.918;12.530;2023-04-03T06:57:28;0.30;99.90
13426;DHT22;6785;57.918;12.530;2023-04-03T06:59:56;0.50;99.90
13426;DHT22;6785;57.918;12.530;2023-04-03T07:02:23;0.70;99.90
13426;DHT22;6785;57.918;12.530;2023-04-03T07:04:49;0.80;99.90
13426;DHT22;6785;57.918;12.530;2023-04-03T07:07:16;0.90;99.90
13426;DHT22;6785;57.918;12.530;2023-04-03T07:09:43;1.00;99.90
13426;DHT22;6785;57.918;12.530;2023-04-03T07:12:12;1.20;99.90
13426;DHT22;6785;57.918;12.530;2023-04-03T07:14:39;1.40;99.90
13426;DHT22;6785;57.918;12.530;2023-04-03T07:17:07;1.50;99.90
13426;DHT22;6785;57.918;12.530;2023-04-03T07:19:33;1.70;99.90
13426;DHT22;6785;57.918;12.530;2023-04-03T07:22:00;1.80;99.90
13426;DHT22;6785;57.918;12.530;2023-04-03T07:24:27;1.80;99.90
13426;DHT22;6785;57.918;12.530;2023-04-03T07:26:54;2.00;99.90
13426;DHT22;6785;57.918;12.530;2023-04-03T07:29:20;2.00;99.90
13426;DHT22;6785;57.918;12.530;2023-04-03T07:31:49;2.30;99.90
13426;DHT22;6785;57.918;12.530;2023-04-03T07:34:18;2.70;99.90
13426;DHT22;6785;57.918;12.530;2023-04-03T07:36:44;3.00;99.90
13426;DHT22;6785;57.918;12.530;2023-04-03T07:39:11;3.20;99.90
13426;DHT22;6785;57.918;12.530;2023-04-03T07:41:38;3.40;99.90
13426;DHT22;6785;57.918;12.530;2023-04-03T07:44:05;3.50;99.90
13426;DHT22;6785;57.918;12.530;2023-04-03T07:46:35;3.70;99.90
13426;DHT22;6785;57.918;12.530;2023-04-03T07:49:02;3.70;99.90
13426;DHT22;6785;57.918;12.530;2023-04-03T07:51:30;3.70;99.90
13426;DHT22;6785;57.918;12.530;2023-04-03T07:53:56;3.80;99.90
13426;DHT22;6785;57.918;12.530;2023-04-03T07:56:24;4.00;99.90
13426;DHT22;6785;57.918;12.530;2023-04-03T07:58:51;4.30;99.90
13426;DHT22;6785;57.918;12.530;2023-04-03T08:01:19;4.30;99.90
13426;DHT22;6785;57.918;12.530;2023-04-03T08:03:46;4.20;99.90
13426;DHT22;6785;57.918;12.530;2023-04-03T08:06:12;4.10;99.90
13426;DHT22;6785;57.918;12.530;2023-04-03T08:08:42;4.30;99.90
13426;DHT22;6785;57.918;12.530;2023-04-03T08:11:10;4.30;99.90
13426;DHT22;6785;57.918;12.530;2023-04-03T08:13:37;4.30;99.90
13426;DHT22;6785;57.918;12.530;2023-04-03T08:16:12;4.40;99.90
13426;DHT22;6785;57.918;12.530;2023-04-03T08:18:39;4.60;99.90
13426;DHT22;6785;57.918;12.530;2023-04-03T08:21:07;4.60;99.90
13426;DHT22;6785;57.918;12.530;2023-04-03T08:23:34;4.60;99.90
13426;DHT22;6785;57.918;12.530;2023-04-03T08:26:07;4.70;99.90
13426;DHT22;6785;57.918;12.530;2023-04-03T08:28:34;4.90;99.90
13426;DHT22;6785;57.918;12.530;2023-04-03T08:31:03;4.80;99.90
13426;DHT22;6785;57.918;12.530;2023-04-03T08:33:31;4.70;99.90
13426;DHT22;6785;57.918;12.530;2023-04-03T08:35:58;4.70;99.90
13426;DHT22;6785;57.918;12.530;2023-04-03T08:38:25;4.60;99.90
13426;DHT22;6785;57.918;12.530;2023-04-03T08:41:00;4.50;99.90
13426;DHT22;6785;57.918;12.530;2023-04-03T08:43:36;4.50;99.90
13426;DHT22;6785;57.918;12.530;2023-04-03T08:46:05;4.60;99.90
13426;DHT22;6785;57.918;12.530;2023-04-03T08:48:34;4.60;99.90
13426;DHT22;6785;57.918;12.530;2023-04-03T08:51:04;4.70;99.90
13426;DHT22;6785;57.918;12.530;2023-04-03T08:53:40;4.70;99.90
13426;DHT22;6785;57.918;12.530;2023-04-03T08:56:09;4.70;99.90
13426;DHT22;6785;57.918;12.530;2023-04-03T08:58:42;4.70;99.90
13426;DHT22;6785;57.918;12.530;2023-04-03T09:01:18;4.60;99.90
13426;DHT22;6785;57.918;12.530;2023-04-03T09:03:46;4.60;99.90
13426;DHT22;6785;57.918;12.530;2023-04-03T09:06:14;4.70;99.90
13426;DHT22;6785;57.918;12.530;2023-04-03T09:08:45;4.80;99.90
13426;DHT22;6785;57.918;12.530;2023-04-03T09:11:19;4.90;99.90
13426;DHT22;6785;57.918;12.530;2023-04-03T09:13:52;4.90;99.90
13426;DHT22;6785;57.918;12.530;2023-04-03T09:16:27;4.90;99.90
13426;DHT22;6785;57.918;12.530;2023-04-03T09:19:05;4.90;99.90
13426;DHT22;6785;57.918;12.530;2023-04-03T09:21:37;4.90;99.90
13426;DHT22;6785;57.918;12.530;2023-04-03T09:24:06;4.80;99.90
13426;DHT22;6785;57.918;12.530;2023-04-03T09:26:36;4.80;99.90
13426;DHT22;6785;57.918;12.530;2023-04-03T09:29:07;4.80;99.90
13426;DHT22;6785;57.918;12.530;2023-04-03T09:31:37;4.70;99.90
13426;DHT22;6785;57.918;12.530;2023-04-03T09:34:10;4.70;99.90
13426;DHT22;6785;57.918;12.530;2023-04-03T09:36:41;4.90;99.90
13426;DHT22;6785;57.918;12.530;2023-04-03T09:39:12;5.00;99.90
13426;DHT22;6785;57.918;12.530;2023-04-03T09:41:40;5.10;99.90
13426;DHT22;6785;57.918;12.530;2023-04-03T09:44:21;5.10;99.90
13426;DHT22;6785;57.918;12.530;2023-04-03T09:46:48;5.00;99.90
13426;DHT22;6785;57.918;12.530;2023-04-03T09:49:15;5.10;99.90
13426;DHT22;6785;57.918;12.530;2023-04-03T09:51:42;5.20;99.90
13426;DHT22;6785;57.918;12.530;2023-04-03T09:54:33;5.20;99.90
13426;DHT22;6785;57.918;12.530;2023-04-03T09:57:07;5.10;99.90
13426;DHT22;6785;57.918;12.530;2023-04-03T09:59:39;5.10;99.90
13426;DHT22;6785;57.918;12.530;2023-04-03T10:02:22;5.10;99.90
13426;DHT22;6785;57.918;12.530;2023-04-03T10:04:54;5.20;99.90
13426;DHT22;6785;57.918;12.530;2023-04-03T10:07:31;5.30;99.90
13426;DHT22;6785;57.918;12.530;2023-04-03T10:09:59;5.30;99.90
13426;DHT22;6785;57.918;12.530;2023-04-03T10:12:27;5.40;99.90
13426;DHT22;6785;57.918;12.530;2023-04-03T10:14:57;5.50;99.90
13426;DHT22;6785;57.918;12.530;2023-04-03T10:17:33;5.60;99.90
13426;DHT22;6785;57.918;12.530;2023-04-03T10:20:08;5.80;99.90
13426;DHT22;6785;57.918;12.530;2023-04-03T10:22:41;5.70;99.90
13426;DHT22;6785;57.918;12.530;2023-04-03T10:25:15;5.80;99.90
13426;DHT22;6785;57.918;12.530;2023-04-03T10:27:52;5.80;99.90
13426;DHT22;6785;57.918;12.530;2023-04-03T10:30:31;5.80;99.90
13426;DHT22;6785;57.918;12.530;2023-04-03T10:33:11;5.80;99.90
13426;DHT22;6785;57.918;12.530;2023-04-03T10:35:50;5.90;99.90
13426;DHT22;6785;57.918;12.530;2023-04-03T10:38:29;6.00;99.90
13426;DHT22;6785;57.918;12.530;2023-04-03T10:41:01;5.90;99.90
13426;DHT22;6785;57.918;12.530;2023-04-03T10:43:33;6.10;99.90
13426;DHT22;6785;57.918;12.530;2023-04-03T10:46:06;6.00;99.90
13426;DHT22;6785;57.918;12.530;2023-04-03T10:48:47;6.00;99.90
13426;DHT22;6785;57.918;12.530;2023-04-03T10:51:25;6.00;99.90
13426;DHT22;6785;57.918;12.530;2023-04-03T10:54:00;6.00;99.90
13426;DHT22;6785;57.918;12.530;2023-04-03T10:56:32;6.10;99.90
13426;DHT22;6785;57.918;12.530;2023-04-03T10:59:13;6.20;99.90
13426;DHT22;6785;57.918;12.530;2023-04-03T11:01:45;6.20;99.90
13426;DHT22;6785;57.918;12.530;2023-04-03T11:04:15;6.20;99.90
13426;DHT22;6785;57.918;12.530;2023-04-03T11:06:45;6.30;99.90
13426;DHT22;6785;57.918;12.530;2023-04-03T11:09:21;6.30;99.90
13426;DHT22;6785;57.918;12.530;2023-04-03T11:11:50;6.40;99.90
13426;DHT22;6785;57.918;12.530;2023-04-03T11:14:24;6.40;99.90
13426;DHT22;6785;57.918;12.530;2023-04-03T11:16:59;6.40;99.90
13426;DHT22;6785;57.918;12.530;2023-04-03T11:19:34;6.40;99.90
13426;DHT22;6785;57.918;12.530;2023-04-03T11:22:06;6.50;99.90
13426;DHT22;6785;57.918;12.530;2023-04-03T11:24:37;6.50;99.90
13426;DHT22;6785;57.918;12.530;2023-04-03T11:27:08;6.60;99.90
13426;DHT22;6785;57.918;12.530;2023-04-03T11:29:40;6.60;99.90
13426;DHT22;6785;57.918;12.530;2023-04-03T11:32:28;6.70;99.90
13426;DHT22;6785;57.918;12.530;2023-04-03T11:34:59;6.60;99.90
13426;DHT22;6785;57.918;12.530;2023-04-03T11:37:32;6.60;99.90
13426;DHT22;6785;57.918;12.530;2023-04-03T11:40:03;6.70;99.90
13426;DHT22;6785;57.918;12.530;2023-04-03T11:42:37;6.70;99.90
13426;DHT22;6785;57.918;12.530;2023-04-03T11:45:27;6.80;99.90
13426;DHT22;6785;57.918;12.530;2023-04-03T11:47:58;6.90;99.90
13426;DHT22;6785;57.918;12.530;2023-04-03T11:50:47;7.00;99.90
13426;DHT22;6785;57.918;12.530;2023-04-03T11:53:29;7.00;99.90
13426;DHT22;6785;57.918;12.530;2023-04-03T11:59:16;6.80;99.90
13426;DHT22;6785;57.918;12.530;2023-04-03T12:01:45;6.70;99.90
13426;DHT22;6785;57.918;12.530;2023-04-03T12:04:16;6.80;99.90
13426;DHT22;6785;57.918;12.530;2023-04-03T12:06:53;6.90;99.90
13426;DHT22;6785;57.918;12.530;2023-04-03T12:09:25;7.00;99.90
13426;DHT22;6785;57.918;12.530;2023-04-03T12:11:53;7.00;99.90
13426;DHT22;6785;57.918;12.530;2023-04-03T12:14:23;7.00;99.90
13426;DHT22;6785;57.918;12.530;2023-04-03T12:16:52;7.00;99.90
13426;DHT22;6785;57.918;12.530;2023-04-03T12:19:34;6.90;99.90
13426;DHT22;6785;57.918;12.530;2023-04-03T12:22:11;7.10;99.90
13426;DHT22;6785;57.918;12.530;2023-04-03T12:24:39;7.10;99.90
13426;DHT22;6785;57.918;12.530;2023-04-03T12:27:24;7.00;99.90
13426;DHT22;6785;57.918;12.530;2023-04-03T12:30:00;7.00;99.90
13426;DHT22;6785;57.918;12.530;2023-04-03T12:35:28;7.20;99.90
13426;DHT22;6785;57.918;12.530;2023-04-03T12:43:56;7.30;99.90
13426;DHT22;6785;57.918;12.530;2023-04-03T12:46:32;7.30;99.90
13426;DHT22;6785;57.918;12.530;2023-04-03T12:49:00;7.40;99.90
13426;DHT22;6785;57.918;12.530;2023-04-03T12:51:34;7.30;99.90
13426;DHT22;6785;57.918;12.530;2023-04-03T12:54:04;7.30;99.90
13426;DHT22;6785;57.918;12.530;2023-04-03T12:56:39;7.30;99.90
13426;DHT22;6785;57.918;12.530;2023-04-03T12:59:16;7.30;99.90
13426;DHT22;6785;57.918;12.530;2023-04-03T13:01:43;7.40;99.90
13426;DHT22;6785;57.918;12.530;2023-04-03T13:04:12;7.40;99.90
13426;DHT22;6785;57.918;12.530;2023-04-03T13:06:41;7.50;99.90
13426;DHT22;6785;57.918;12.530;2023-04-03T13:09:20;7.40;99.90
13426;DHT22;6785;57.918;12.530;2023-04-03T13:11:49;7.40;99.90
13426;DHT22;6785;57.918;12.530;2023-04-03T13:14:20;7.30;99.90
13426;DHT22;6785;57.918;12.530;2023-04-03T13:16:54;7.40;99.90
13426;DHT22;6785;57.918;12.530;2023-04-03T13:19:24;7.40;99.90
13426;DHT22;6785;57.918;12.530;2023-04-03T13:21:58;7.40;99.90
13426;DHT22;6785;57.918;12.530;2023-04-03T13:24:25;7.40;99.90
13426;DHT22;6785;57.918;12.530;2023-04-03T13:26:53;7.30;99.90
13426;DHT22;6785;57.918;12.530;2023-04-03T13:29:23;7.30;99.90
13426;DHT22;6785;57.918;12.530;2023-04-03T13:31:53;7.40;99.90
13426;DHT22;6785;57.918;12.530;2023-04-03T13:34:20;7.40;99.90
13426;DHT22;6785;57.918;12.530;2023-04-03T13:36:58;7.40;99.90
13426;DHT22;6785;57.918;12.530;2023-04-03T13:39:26;7.50;99.90
13426;DHT22;6785;57.918;12.530;2023-04-03T13:41:55;7.50;99.90
13426;DHT22;6785;57.918;12.530;2023-04-03T13:44:31;7.50;99.90
13426;DHT22;6785;57.918;12.530;2023-04-03T13:47:01;7.40;99.90
13426;DHT22;6785;57.918;12.530;2023-04-03T13:49:42;7.50;99.90
13426;DHT22;6785;57.918;12.530;2023-04-03T13:52:25;7.50;99.90
13426;DHT22;6785;57.918;12.530;2023-04-03T13:54:55;7.60;99.90
13426;DHT22;6785;57.918;12.530;2023-04-03T13:57:22;7.50;99.90
13426;DHT22;6785;57.918;12.530;2023-04-03T13:59:49;7.30;99.90
13426;DHT22;6785;57.918;12.530;2023-04-03T14:02:19;7.40;99.90
13426;DHT22;6785;57.918;12.530;2023-04-03T14:04:53;7.30;99.90
13426;DHT22;6785;57.918;12.530;2023-04-03T14:07:23;7.40;99.90
13426;DHT22;6785;57.918;12.530;2023-04-03T14:09:50;7.30;99.90
13426;DHT22;6785;57.918;12.530;2023-04-03T14:12:21;7.20;99.90
13426;DHT22;6785;57.918;12.530;2023-04-03T14:14:50;7.20;99.90
13426;DHT22;6785;57.918;12.530;2023-04-03T14:17:19;7.10;99.90
13426;DHT22;6785;57.918;12.530;2023-04-03T14:19:47;7.00;99.90
13426;DHT22;6785;57.918;12.530;2023-04-03T14:22:17;7.10;99.90
13426;DHT22;6785;57.918;12.530;2023-04-03T14:24:45;7.00;99.90
13426;DHT22;6785;57.918;12.530;2023-04-03T14:27:17;7.00;99.90
13426;DHT22;6785;57.918;12.530;2023-04-03T14:29:45;7.10;99.90
13426;DHT22;6785;57.918;12.530;2023-04-03T14:32:13;7.10;99.90
13426;DHT22;6785;57.918;12.530;2023-04-03T14:34:42;7.10;99.90
13426;DHT22;6785;57.918;12.530;2023-04-03T14:37:11;7.20;99.90
13426;DHT22;6785;57.918;12.530;2023-04-03T14:39:38;7.20;99.90
13426;DHT22;6785;57.918;12.530;2023-04-03T14:42:06;7.10;99.90
13426;DHT22;6785;57.918;12.530;2023-04-03T14:44:33;7.00;99.90
13426;DHT22;6785;57.918;12.530;2023-04-03T14:47:00;7.00;99.90
13426;DHT22;6785;57.918;12.530;2023-04-03T14:49:29;7.00;99.90
13426;DHT22;6785;57.918;12.530;2023-04-03T14:51:57;6.90;99.90
13426;DHT22;6785;57.918;12.530;2023-04-03T14:54:24;6.80;99.90
13426;DHT22;6785;57.918;12.530;2023-04-03T14:56:53;6.70;99.90
13426;DHT22;6785;57.918;12.530;2023-04-03T14:59:22;6.60;99.90
13426;DHT22;6785;57.918;12.530;2023-04-03T15:01:49;6.50;99.90
13426;DHT22;6785;57.918;12.530;2023-04-03T15:04:18;6.50;99.90
13426;DHT22;6785;57.918;12.530;2023-04-03T15:06:46;6.50;99.90
13426;DHT22;6785;57.918;12.530;2023-04-03T15:09:20;6.50;99.90
13426;DHT22;6785;57.918;12.530;2023-04-03T15:11:47;6.50;99.90
13426;DHT22;6785;57.918;12.530;2023-04-03T15:14:14;6.50;99.90
13426;DHT22;6785;57.918;12.530;2023-04-03T15:16:42;6.50;99.90
13426;DHT22;6785;57.918;12.530;2023-04-03T15:19:09;6.50;99.90
13426;DHT22;6785;57.918;12.530;2023-04-03T15:21:36;6.50;99.90
13426;DHT22;6785;57.918;12.530;2023-04-03T15:24:03;6.60;99.90
13426;DHT22;6785;57.918;12.530;2023-04-03T15:26:30;6.60;99.90
13426;DHT22;6785;57.918;12.530;2023-04-03T15:28:57;6.60;99.90
13426;DHT22;6785;57.918;12.530;2023-04-03T15:31:24;6.60;99.90
13426;DHT22;6785;57.918;12.530;2023-04-03T15:33:52;6.50;99.90
13426;DHT22;6785;57.918;12.530;2023-04-03T15:36:19;6.50;99.90
13426;DHT22;6785;57.918;12.530;2023-04-03T15:38:46;6.40;99.90
13426;DHT22;6785;57.918;12.530;2023-04-03T15:41:13;6.30;99.90
13426;DHT22;6785;57.918;12.530;2023-04-03T15:43:40;6.40;99.90
13426;DHT22;6785;57.918;12.530;2023-04-03T15:46:07;6.40;99.90
13426;DHT22;6785;57.918;12.530;2023-04-03T15:48:34;6.40;99.90
13426;DHT22;6785;57.918;12.530;2023-04-03T15:51:03;6.40;99.90
13426;DHT22;6785;57.918;12.530;2023-04-03T15:53:31;6.40;99.90
13426;DHT22;6785;57.918;12.530;2023-04-03T15:55:58;6.40;99.90
13426;DHT22;6785;57.918;12.530;2023-04-03T15:58:24;6.40;99.90
13426;DHT22;6785;57.918;12.530;2023-04-03T16:00:51;6.40;99.90
13426;DHT22;6785;57.918;12.530;2023-04-03T16:03:20;6.30;99.90
13426;DHT22;6785;57.918;12.530;2023-04-03T16:05:47;6.20;99.90
13426;DHT22;6785;57.918;12.530;2023-04-03T16:08:16;6.10;99.90
13426;DHT22;6785;57.918;12.530;2023-04-03T16:10:43;6.10;99.90